Terminal Aerodrome Forecast
Issued by NWS

Home | Current Version | Previous Version | Text Only | Print | Product List | Glossary On
Versions: 1 2 3 4 5 6 7 8 9 10 11 12 13 14 15
000
FTUS46 KSEW 052300
TAFOLM
TAF
KOLM 052332Z 0600/0624 00000KT P6SM SCT250
     FM060900 00000KT 4SM BR SCT250
     FM061800 VRB03KT P6SM SCT250=

USA.gov is the U.S. government's official web portal to all federal, state and local government web resources and services.